Linden, West Virginia
Current Conditions -  °F | °C
As of 2:54 PM on Friday 31 Oct 2014 (Local Time) from KCRW Reporting Station
Light Rain Light Rain  
Wind Chill: 47°   Ceiling: 3200
Heat Index: 47°   Visibility: 7mi
Dew Point: 36°   Wind: 3mph
Humidity: 66%   Direction: 300°WNW
Pressure: 29.87"   Gusts: NA
Location:  38.72°N, 81.21°W
Report Text: KCRW 311854Z 30003KT 7SM -RA BKN032 OVC045 08/02 A2987 RMK AO2 RAB24 SLP117 P0001 T00830022
Loading
Personal Weather Stations






























Interactive Weather Map
Tropical Storm Tracking
New forecast layout! Learn more

10-Day Weather Forecast

Advertisements
Track Severe Weather on mobile